createdAt,value
2023-03-15T21:53:37.306Z,99190.03
2023-03-15T21:56:06.314Z,99190.94
2023-03-15T21:58:42.950Z,99189.06
2023-03-15T22:01:13.989Z,99191.69
2023-03-15T22:03:44.362Z,99192.13
2023-03-15T22:06:14.098Z,99189.03
2023-03-15T22:08:44.383Z,99196.22
2023-03-15T22:11:13.664Z,99184.50
2023-03-15T22:13:42.492Z,99185.84
2023-03-15T22:16:11.769Z,99183.28
2023-03-15T22:18:40.946Z,99180.63
2023-03-15T22:21:09.701Z,99173.66
2023-03-15T22:23:38.415Z,99181.84
2023-03-15T22:26:09.252Z,99187.91
2023-03-15T22:28:37.881Z,99188.13
2023-03-15T22:31:06.598Z,99182.41
2023-03-15T22:33:38.358Z,99182.72
2023-03-15T22:36:07.669Z,99185.50
2023-03-15T22:38:38.018Z,99181.41
2023-03-15T22:41:10.404Z,99191.03
2023-03-15T22:43:39.658Z,99189.94
2023-03-15T22:46:08.261Z,99194.25
2023-03-15T22:48:37.227Z,99206.41
2023-03-15T22:51:09.052Z,99203.75
2023-03-15T22:53:40.344Z,99206.31
2023-03-15T22:56:10.612Z,99206.31
2023-03-15T22:58:39.696Z,99209.63
2023-03-15T23:01:08.736Z,99202.66
2023-03-15T23:03:37.699Z,99202.97
2023-03-15T23:06:06.828Z,99206.28
2023-03-15T23:08:35.725Z,99205.28
2023-03-15T23:11:04.589Z,99216.38
2023-03-15T23:13:34.710Z,99220.81
2023-03-15T23:16:04.307Z,99229.22
2023-03-15T23:18:34.502Z,99233.53
2023-03-15T23:21:07.572Z,99234.72
2023-03-15T23:23:36.577Z,99241.59
2023-03-15T23:26:04.910Z,99238.06
2023-03-15T23:28:35.524Z,99241.03
2023-03-15T23:31:06.188Z,99236.94
2023-03-15T23:33:35.137Z,99242.25
2023-03-15T23:36:04.003Z,99243.22
2023-03-15T23:38:34.514Z,99246.00
2023-03-15T23:41:05.023Z,99242.69
2023-03-15T23:43:35.596Z,99246.22
2023-03-15T23:46:05.712Z,99246.78
2023-03-15T23:48:36.253Z,99247.88
2023-03-15T23:51:04.736Z,99252.53
2023-03-15T23:53:33.676Z,99253.88
2023-03-15T23:56:02.516Z,99257.97
2023-03-15T23:58:31.459Z,99252.88
